createdAt,value
2022-08-20T00:01:32.477Z,98476.72
2022-08-20T00:06:54.232Z,98486.84
2022-08-20T00:12:16.685Z,98476.88
2022-08-20T00:17:39.479Z,98483.50
2022-08-20T00:23:01.818Z,98477.38
2022-08-20T00:28:23.537Z,98479.50
2022-08-20T00:33:45.876Z,98485.50
2022-08-20T00:39:07.644Z,98488.47
2022-08-20T00:44:30.111Z,98492.81
2022-08-20T00:49:51.829Z,98490.81
2022-08-20T00:55:14.529Z,98490.63
2022-08-20T01:00:40.607Z,98487.47
2022-08-20T01:06:02.416Z,98484.16
2022-08-20T01:11:37.214Z,98502.59
2022-08-20T01:17:04.091Z,98506.13
2022-08-20T01:23:29.725Z,98505.09
2022-08-20T01:28:56.326Z,98509.03
2022-08-20T01:34:20.630Z,98510.69
2022-08-20T01:39:42.493Z,98524.16
2022-08-20T01:45:06.330Z,98519.81
2022-08-20T01:50:32.200Z,98532.63
2022-08-20T01:55:55.293Z,98533.47
2022-08-20T02:01:28.562Z,98533.59
2022-08-20T02:07:00.216Z,98540.44
2022-08-20T02:12:21.991Z,98539.09
2022-08-20T02:17:43.887Z,98541.38
2022-08-20T02:23:07.569Z,98540.34
2022-08-20T02:28:29.934Z,98541.72
2022-08-20T02:34:21.599Z,98544.53
2022-08-20T02:39:34.430Z,98547.56
2022-08-20T02:44:58.516Z,98543.69
2022-08-20T02:50:21.015Z,98545.38
2022-08-20T02:55:43.255Z,98546.69
2022-08-20T03:01:07.875Z,98536.53
2022-08-20T03:06:30.274Z,98521.25
2022-08-20T03:11:52.800Z,98527.41
2022-08-20T03:17:14.573Z,98527.75
2022-08-20T03:22:36.341Z,98531.06
2022-08-20T03:27:58.364Z,98533.06
2022-08-20T03:33:20.918Z,98534.88
2022-08-20T03:38:42.703Z,98522.59
2022-08-20T03:44:06.869Z,98528.41
2022-08-20T03:49:28.830Z,98531.41
2022-08-20T03:54:50.574Z,98536.88
2022-08-20T04:00:14.727Z,98541.72
2022-08-20T04:05:40.791Z,98540.88
2022-08-20T04:11:02.534Z,98539.72
2022-08-20T04:16:24.311Z,98540.53
2022-08-20T04:21:48.342Z,98531.41
2022-08-20T04:27:10.858Z,98541.31
2022-08-20T04:32:32.747Z,98558.63
2022-08-20T04:38:03.713Z,98558.28
2022-08-20T04:43:28.482Z,98565.13
2022-08-20T04:48:50.781Z,98564.63
2022-08-20T04:54:14.394Z,98565.69
2022-08-20T04:59:36.140Z,98564.47
2022-08-20T05:04:57.884Z,98563.06
2022-08-20T05:10:20.178Z,98569.41
2022-08-20T05:15:42.443Z,98571.66
2022-08-20T05:21:07.251Z,98570.16
2022-08-20T05:26:29.295Z,98577.59
2022-08-20T05:31:51.063Z,98588.91
2022-08-20T05:37:12.832Z,98583.59
2022-08-20T05:42:34.672Z,98589.66
2022-08-20T05:47:57.247Z,98598.97
2022-08-20T05:53:19.891Z,98593.22
2022-08-20T05:58:41.651Z,98605.91
2022-08-20T06:04:22.576Z,98603.47
2022-08-20T06:09:44.572Z,98599.31
2022-08-20T06:15:07.040Z,98592.94
2022-08-20T06:20:28.988Z,98600.44
2022-08-20T06:25:51.212Z,98604.00
2022-08-20T06:31:13.133Z,98602.44
2022-08-20T06:36:34.924Z,98605.66
2022-08-20T06:41:58.556Z,98610.28
2022-08-20T06:47:21.200Z,98609.84
2022-08-20T06:52:52.004Z,98610.63
2022-08-20T06:58:36.187Z,98616.47
2022-08-20T07:03:59.612Z,98619.53
2022-08-20T07:09:24.126Z,98620.56
2022-08-20T07:14:45.871Z,98616.59
2022-08-20T07:20:14.479Z,98628.53
2022-08-20T07:25:36.243Z,98623.88
2022-08-20T07:31:17.420Z,98626.25
2022-08-20T07:36:43.501Z,98637.09
2022-08-20T07:42:07.239Z,98640.97
2022-08-20T07:47:29.008Z,98651.50
2022-08-20T07:52:54.472Z,98654.91
2022-08-20T07:58:19.749Z,98650.31
2022-08-20T08:03:50.371Z,98651.66
2022-08-20T08:09:14.639Z,98646.84
2022-08-20T08:14:36.539Z,98648.69
2022-08-20T08:19:58.603Z,98648.59
2022-08-20T08:25:20.533Z,98644.50
2022-08-20T08:30:43.848Z,98638.84
2022-08-20T08:36:10.404Z,98628.06
2022-08-20T08:41:36.030Z,98625.13
2022-08-20T08:47:02.791Z,98627.81
2022-08-20T08:52:28.595Z,98626.81
2022-08-20T08:57:55.165Z,98631.47
2022-08-20T09:03:29.807Z,98636.31
2022-08-20T09:09:00.959Z,98624.34
2022-08-20T09:14:24.868Z,98628.00
2022-08-20T09:19:47.399Z,98630.84
2022-08-20T09:25:09.471Z,98627.88
2022-08-20T09:30:31.532Z,98630.38
2022-08-20T09:35:53.373Z,98636.03
2022-08-20T09:41:15.116Z,98629.56
2022-08-20T09:46:37.159Z,98627.44
2022-08-20T09:52:01.233Z,98620.28
2022-08-20T09:57:23.575Z,98615.16
2022-08-20T10:02:45.792Z,98624.97
2022-08-20T10:08:09.853Z,98637.78
2022-08-20T10:13:31.600Z,98636.28
2022-08-20T10:18:53.584Z,98644.13
2022-08-20T10:24:15.318Z,98644.31
2022-08-20T10:29:37.103Z,98631.81
2022-08-20T10:34:58.887Z,98638.63
2022-08-20T10:40:20.829Z,98643.47
2022-08-20T10:45:42.622Z,98620.16
2022-08-20T10:51:04.766Z,98631.34
2022-08-20T10:56:26.527Z,98637.16
2022-08-20T11:01:48.352Z,98638.97
2022-08-20T11:07:12.451Z,98636.81
2022-08-20T11:12:34.573Z,98630.31
2022-08-20T11:17:56.972Z,98643.28
2022-08-20T11:23:19.070Z,98648.44
2022-08-20T11:28:41.009Z,98639.97
2022-08-20T11:34:02.770Z,98643.28
2022-08-20T11:39:25.230Z,98636.66
2022-08-20T11:44:47.023Z,98639.63
2022-08-20T11:50:19.510Z,98653.47
2022-08-20T11:55:43.477Z,98650.81
2022-08-20T12:01:05.356Z,98647.31
2022-08-20T12:06:27.202Z,98656.81
2022-08-20T12:11:48.960Z,98650.63
2022-08-20T12:17:13.976Z,98655.66
2022-08-20T12:22:35.865Z,98655.31
2022-08-20T12:27:57.638Z,98651.81
2022-08-20T12:33:19.442Z,98641.34
2022-08-20T12:38:41.204Z,98641.50
2022-08-20T12:44:06.971Z,98631.19
2022-08-20T12:49:32.583Z,98624.69
2022-08-20T12:54:55.665Z,98615.84
2022-08-20T13:00:22.539Z,98619.34
2022-08-20T13:05:46.129Z,98630.31
2022-08-20T13:11:07.911Z,98640.16
2022-08-20T13:16:29.730Z,98645.63
2022-08-20T13:21:55.109Z,98648.53
2022-08-20T13:27:18.608Z,98648.31
2022-08-20T13:32:41.072Z,98651.19
2022-08-20T13:38:02.871Z,98650.19
2022-08-20T13:43:24.605Z,98651.94
2022-08-20T13:48:46.413Z,98649.97
2022-08-20T13:54:10.817Z,98660.66
2022-08-20T13:59:39.980Z,98649.81
2022-08-20T14:05:01.718Z,98629.16
2022-08-20T14:10:26.900Z,98627.66
2022-08-20T14:15:49.115Z,98619.69
2022-08-20T14:21:10.842Z,98618.00
2022-08-20T14:26:32.609Z,98613.19
2022-08-20T14:31:54.360Z,98602.03
2022-08-20T14:37:21.885Z,98589.28
2022-08-20T14:42:44.239Z,98594.81
2022-08-20T14:48:09.590Z,98583.47
2022-08-20T14:53:31.354Z,98571.09
2022-08-20T14:58:53.093Z,98584.09
2022-08-20T15:04:14.828Z,98575.97
2022-08-20T15:09:36.742Z,98571.94
2022-08-20T15:14:59.700Z,98580.16
2022-08-20T15:20:31.715Z,98571.31
2022-08-20T15:25:53.555Z,98559.97
2022-08-20T15:31:15.308Z,98549.97
2022-08-20T15:36:37.132Z,98551.31
2022-08-20T15:42:05.044Z,98550.44
2022-08-20T15:47:34.090Z,98552.78
2022-08-20T15:53:02.023Z,98556.44
2022-08-20T15:58:43.734Z,98557.75
2022-08-20T16:04:08.363Z,98550.38
2022-08-20T16:09:56.232Z,98553.03
2022-08-20T16:15:23.625Z,98571.56
2022-08-20T16:20:48.805Z,98572.25
2022-08-20T16:26:57.761Z,98578.19
2022-08-20T16:32:44.796Z,98573.00
2022-08-20T16:38:11.025Z,98578.19
2022-08-20T16:43:37.773Z,98577.34
2022-08-20T16:49:05.661Z,98578.66
2022-08-20T16:54:29.456Z,98586.66
2022-08-20T17:00:05.498Z,98580.84
2022-08-20T17:05:43.095Z,98582.47
2022-08-20T17:11:17.263Z,98585.16
2022-08-20T17:16:45.613Z,98584.50
2022-08-20T17:22:10.225Z,98575.81
2022-08-20T17:27:31.895Z,98581.22
2022-08-20T17:32:58.859Z,98585.06
2022-08-20T17:38:38.022Z,98586.03
2022-08-20T17:44:03.368Z,98586.88
2022-08-20T17:49:35.624Z,98587.56
2022-08-20T17:54:58.047Z,98594.09
2022-08-20T18:00:24.965Z,98588.25
2022-08-20T18:05:55.180Z,98598.44
2022-08-20T18:11:25.189Z,98600.97
2022-08-20T18:17:05.351Z,98604.31
2022-08-20T18:22:31.552Z,98602.34
2022-08-20T18:28:04.555Z,98613.84
2022-08-20T18:33:38.839Z,98619.84
2022-08-20T18:39:23.089Z,98617.81
2022-08-20T18:44:48.618Z,98619.50
2022-08-20T18:50:19.763Z,98616.19
2022-08-20T18:55:44.804Z,98624.50
2022-08-20T19:01:12.207Z,98634.50
2022-08-20T19:07:11.076Z,98631.97
2022-08-20T19:12:59.172Z,98638.56
2022-08-20T19:18:30.541Z,98641.34
2022-08-20T19:23:56.331Z,98646.31
2022-08-20T19:29:24.553Z,98654.94
2022-08-20T19:34:58.522Z,98659.06
2022-08-20T19:40:28.596Z,98652.56
2022-08-20T19:45:55.559Z,98650.84
2022-08-20T19:51:30.501Z,98652.63
2022-08-20T19:56:57.170Z,98658.34
2022-08-20T20:02:20.514Z,98659.78
2022-08-20T20:07:47.133Z,98656.63
2022-08-20T20:13:12.701Z,98654.91
2022-08-20T20:18:41.653Z,98656.66
2022-08-20T20:24:04.560Z,98662.31
2022-08-20T20:29:34.746Z,98658.50
2022-08-20T20:34:59.683Z,98660.09
2022-08-20T20:40:28.387Z,98661.03
2022-08-20T20:45:59.094Z,98659.19
2022-08-20T20:51:33.231Z,98656.00
2022-08-20T20:57:05.273Z,98658.53
2022-08-20T21:02:27.022Z,98649.50
2022-08-20T21:07:50.817Z,98649.41
2022-08-20T21:13:12.790Z,98652.94
2022-08-20T21:18:36.598Z,98661.28
2022-08-20T21:23:58.393Z,98653.91
2022-08-20T21:29:31.703Z,98661.97
2022-08-20T21:34:54.253Z,98653.44
2022-08-20T21:40:18.114Z,98660.97
2022-08-20T21:45:43.566Z,98662.34
2022-08-20T21:51:06.161Z,98666.00
2022-08-20T21:56:28.925Z,98667.59
2022-08-20T22:01:53.981Z,98675.25
2022-08-20T22:07:16.580Z,98678.91
2022-08-20T22:12:38.368Z,98683.72
2022-08-20T22:18:00.109Z,98680.47
2022-08-20T22:23:23.498Z,98690.00
2022-08-20T22:28:45.460Z,98688.03
2022-08-20T22:34:15.136Z,98691.03
2022-08-20T22:39:36.929Z,98692.53
2022-08-20T22:44:58.706Z,98692.69
2022-08-20T22:50:24.021Z,98697.44
2022-08-20T22:55:47.447Z,98699.38
2022-08-20T23:01:09.271Z,98696.53
2022-08-20T23:06:31.872Z,98695.97
2022-08-20T23:11:53.729Z,98705.19
2022-08-20T23:17:19.012Z,98704.72
2022-08-20T23:22:40.782Z,98704.34
2022-08-20T23:28:03.428Z,98697.19
2022-08-20T23:33:26.134Z,98702.16
2022-08-20T23:38:47.907Z,98706.06
2022-08-20T23:44:25.401Z,98703.78
2022-08-20T23:49:48.900Z,98700.97
2022-08-20T23:55:11.627Z,98687.31
